Enter the Airport ICAO Code

Search by Airport or City

Current Weather

KCMH | Port Columbus International Airport

Columbus, Ohio, United States

Last Update 1 Hour Ago

Mostly Cloudy Sky

Temperature of 03 ºC

Calm Wind

Temperature

03 ºC

Dew Point Temperature

02 ºC Below Zero

Relative Humidity

69.62 %

Wind Direction

None

Wind Velocity

0 km/h (0 kt)

Gusts

None

Visibility

Greater than 10 Miles

Sea Level Pressure

30.37 inHg (Inches of Mercury)

Layers of Clouds

60% to 90% of Sky Covered from 7620 mts (25000 ft) Above Ground Level.

METAR KCMH 090851Z 00000KT 10SM BKN250 03/M02 A3037 RMK AO2 SLP285 T00331017 58003

Weather Forecast

KCMH | Port Columbus International Airport

Columbus, Ohio, United States

Forecast valid for the next 20 Hours

From now on it is expected:

Mostly Cloudy Sky

Light Winds from South

In 4 hours it is expected the begining of:

Light Winds from SouthWest

In 8 hours it is expected the begining of:

Light to Moderate Winds from SouthWest

In 13 hours it is expected the begining of:

Partly Cloudy Sky

Light to Moderate Winds from South

In 16 hours it is expected the begining of:

Sky with Few Clouds

Maximum Temperature

No Data

Minimum Temperature

No Data

TAF KCMH 090532Z 0906/1006 17003KT P6SM SCT080 BKN250 FM091400 21004KT P6SM SCT080 BKN250 FM091800 23009KT P6SM BKN250 FM092300 20006KT P6SM SCT250 FM100200 17005KT P6SM FEW250